createdAt,value
2022-08-11T00:00:32.513Z,79.72
2022-08-11T00:01:32.437Z,79.00
2022-08-11T00:02:32.579Z,79.00
2022-08-11T00:03:43.792Z,78.40
2022-08-11T00:04:33.470Z,78.60
2022-08-11T00:05:32.460Z,78.80
2022-08-11T00:06:32.402Z,78.40
2022-08-11T00:07:33.590Z,78.30
2022-08-11T00:08:32.367Z,77.69
2022-08-11T00:09:32.411Z,77.93
2022-08-11T00:10:33.377Z,77.42
2022-08-11T00:11:32.338Z,77.12
2022-08-11T00:12:32.302Z,77.52
2022-08-11T00:13:32.311Z,77.12
2022-08-11T00:14:36.820Z,77.01
2022-08-11T00:15:33.252Z,76.91
2022-08-11T00:16:32.237Z,77.01
2022-08-11T00:17:32.274Z,77.12
2022-08-11T00:18:32.209Z,77.32
2022-08-11T00:20:11.685Z,77.42
2022-08-11T00:20:33.332Z,77.62
2022-08-11T00:22:04.001Z,77.72
2022-08-11T00:22:33.250Z,77.83
2022-08-11T00:23:32.212Z,77.72
2022-08-11T00:24:32.205Z,77.83
2022-08-11T00:25:32.165Z,77.66
2022-08-11T00:26:33.293Z,77.56
2022-08-11T00:27:32.142Z,77.97
2022-08-11T00:28:32.122Z,77.97
2022-08-11T00:29:32.126Z,78.06
2022-08-11T00:30:32.193Z,78.17
2022-08-11T00:31:32.075Z,78.27
2022-08-11T00:32:32.202Z,78.47
2022-08-11T00:33:44.849Z,78.17
2022-08-11T00:34:33.034Z,78.06
2022-08-11T00:35:54.320Z,78.06
2022-08-11T00:36:32.975Z,78.17
2022-08-11T00:37:31.969Z,78.06
2022-08-11T00:38:31.946Z,78.06
2022-08-11T00:39:32.112Z,78.27
2022-08-11T00:40:32.031Z,78.27
2022-08-11T00:41:32.088Z,78.27
2022-08-11T00:42:32.138Z,78.17
2022-08-11T00:43:31.928Z,78.37
2022-08-11T00:44:31.969Z,78.47
2022-08-11T00:45:32.106Z,78.57
2022-08-11T00:46:32.917Z,78.67
2022-08-11T00:47:31.841Z,78.61
2022-08-11T00:48:31.850Z,78.51
2022-08-11T00:49:31.819Z,78.71
2022-08-11T00:50:31.868Z,78.61
2022-08-11T00:52:02.383Z,79.02
2022-08-11T00:52:32.885Z,78.91
2022-08-11T00:53:31.758Z,79.32
2022-08-11T00:54:33.192Z,78.81
2022-08-11T00:55:31.821Z,79.22
2022-08-11T00:56:31.708Z,79.32
2022-08-11T00:57:36.991Z,79.22
2022-08-11T00:58:33.230Z,78.98
2022-08-11T00:59:34.958Z,78.98
2022-08-11T01:00:31.745Z,78.98
2022-08-11T01:01:31.697Z,78.78
2022-08-11T01:02:31.897Z,78.78
2022-08-11T01:03:31.667Z,78.67
2022-08-11T01:04:31.610Z,78.57
2022-08-11T01:05:31.595Z,78.57
2022-08-11T01:06:31.619Z,78.47
2022-08-11T01:08:01.979Z,78.06
2022-08-11T01:08:32.594Z,78.37
2022-08-11T01:09:31.566Z,78.47
2022-08-11T01:10:32.655Z,78.57
2022-08-11T01:11:31.742Z,78.37
2022-08-11T01:12:31.789Z,78.78
2022-08-11T01:13:31.498Z,79.08
2022-08-11T01:14:33.895Z,78.98
2022-08-11T01:15:31.569Z,78.88
2022-08-11T01:16:31.459Z,79.22
2022-08-11T01:17:31.449Z,79.42
2022-08-11T01:18:31.431Z,79.42
2022-08-11T01:19:31.507Z,79.83
2022-08-11T01:20:45.542Z,79.93
2022-08-11T01:21:32.387Z,80.33
2022-08-11T01:22:31.378Z,80.37
2022-08-11T01:23:31.426Z,80.88
2022-08-11T01:24:31.378Z,80.78
2022-08-11T01:25:31.358Z,80.88
2022-08-11T01:26:31.382Z,80.78
2022-08-11T01:27:32.560Z,81.09
2022-08-11T01:28:31.329Z,80.98
2022-08-11T01:29:31.292Z,80.88
2022-08-11T01:30:31.278Z,80.88
2022-08-11T01:31:31.310Z,80.88
2022-08-11T01:32:31.274Z,80.68
2022-08-11T01:33:31.232Z,80.98
2022-08-11T01:34:31.269Z,80.88
2022-08-11T01:35:31.266Z,80.98
2022-08-11T01:36:31.441Z,81.19
2022-08-11T01:37:31.191Z,81.09
2022-08-11T01:38:31.192Z,81.09
2022-08-11T01:39:31.187Z,80.98
2022-08-11T01:40:31.185Z,81.09
2022-08-11T01:41:31.154Z,80.98
2022-08-11T01:42:31.243Z,80.88
2022-08-11T01:43:31.174Z,81.09
2022-08-11T01:44:31.116Z,81.09
2022-08-11T01:45:31.281Z,81.23
2022-08-11T01:46:31.075Z,81.53
2022-08-11T01:47:31.114Z,81.63
2022-08-11T01:48:31.289Z,81.73
2022-08-11T01:50:08.747Z,82.04
2022-08-11T01:50:32.345Z,81.73
2022-08-11T01:51:31.055Z,81.93
2022-08-11T01:52:35.057Z,82.24
2022-08-11T01:53:30.982Z,82.04
2022-08-11T01:54:31.032Z,81.59
2022-08-11T01:55:30.963Z,81.49
2022-08-11T01:56:30.966Z,81.29
2022-08-11T01:57:30.966Z,80.98
2022-08-11T01:58:36.247Z,81.09
2022-08-11T01:59:31.926Z,80.98
2022-08-11T02:00:30.970Z,80.78
2022-08-11T02:01:30.883Z,80.68
2022-08-11T02:02:30.866Z,80.68
2022-08-11T02:03:30.847Z,80.78
2022-08-11T02:04:30.845Z,80.68
2022-08-11T02:05:30.962Z,80.58
2022-08-11T02:06:30.840Z,80.58
2022-08-11T02:07:30.888Z,80.78
2022-08-11T02:08:33.042Z,80.68
2022-08-11T02:09:30.829Z,80.98
2022-08-11T02:10:36.410Z,81.02
2022-08-11T02:11:35.118Z,80.92
2022-08-11T02:12:30.746Z,80.92
2022-08-11T02:13:36.706Z,81.12
2022-08-11T02:14:32.661Z,81.53
2022-08-11T02:15:30.702Z,81.84
2022-08-11T02:16:30.740Z,81.73
2022-08-11T02:17:30.730Z,82.04
2022-08-11T02:18:30.674Z,81.93
2022-08-11T02:19:30.677Z,82.07
2022-08-11T02:20:30.704Z,82.48
2022-08-11T02:21:30.618Z,82.59
2022-08-11T02:22:30.650Z,82.99
2022-08-11T02:24:04.303Z,82.99
2022-08-11T02:24:31.664Z,83.40
2022-08-11T02:25:30.566Z,83.60
2022-08-11T02:26:30.640Z,83.95
2022-08-11T02:27:30.734Z,83.84
2022-08-11T02:28:33.765Z,84.15
2022-08-11T02:29:30.556Z,84.05
2022-08-11T02:30:30.535Z,84.35
2022-08-11T02:32:17.163Z,84.66
2022-08-11T02:32:31.494Z,84.56
2022-08-11T02:33:30.614Z,84.45
2022-08-11T02:34:30.448Z,84.66
2022-08-11T02:35:30.463Z,84.45
2022-08-11T02:36:30.422Z,83.84
2022-08-11T02:37:30.436Z,84.15
2022-08-11T02:38:30.406Z,84.15
2022-08-11T02:39:30.464Z,84.25
2022-08-11T02:40:30.438Z,84.45
2022-08-11T02:41:30.477Z,84.86
2022-08-11T02:42:32.488Z,85.41
2022-08-11T02:43:31.352Z,85.82
2022-08-11T02:44:30.314Z,85.92
2022-08-11T02:45:30.446Z,85.92
2022-08-11T02:46:30.304Z,85.82
2022-08-11T02:47:30.360Z,85.72
2022-08-11T02:48:30.841Z,86.22
2022-08-11T02:49:30.285Z,86.53
2022-08-11T02:50:30.262Z,86.33
2022-08-11T02:51:30.250Z,86.63
2022-08-11T02:52:30.374Z,86.43
2022-08-11T02:53:30.241Z,86.33
2022-08-11T02:54:30.235Z,86.22
2022-08-11T02:55:48.591Z,86.22
2022-08-11T02:56:31.200Z,86.22
2022-08-11T02:57:30.148Z,86.63
2022-08-11T02:58:30.181Z,86.27
2022-08-11T02:59:30.149Z,86.27
2022-08-11T03:00:30.190Z,86.27
2022-08-11T03:01:30.188Z,86.37
2022-08-11T03:02:30.104Z,86.88
2022-08-11T03:03:30.084Z,86.88
2022-08-11T03:04:37.801Z,87.18
2022-08-11T03:05:31.062Z,87.29
2022-08-11T03:06:30.066Z,87.49
2022-08-11T03:07:30.100Z,88.10
2022-08-11T03:08:30.013Z,87.90
2022-08-11T03:09:30.961Z,87.29
2022-08-11T03:10:30.086Z,87.18
2022-08-11T03:11:29.977Z,87.38
2022-08-11T03:12:29.982Z,87.69
2022-08-11T03:13:29.965Z,87.79
2022-08-11T03:14:29.937Z,88.10
2022-08-11T03:15:29.918Z,88.40
2022-08-11T03:16:29.942Z,88.40
2022-08-11T03:17:29.925Z,88.71
2022-08-11T03:18:29.970Z,88.61
2022-08-11T03:19:29.876Z,88.51
2022-08-11T03:20:37.814Z,88.40
2022-08-11T03:22:02.884Z,88.20
2022-08-11T03:22:30.858Z,88.40
2022-08-11T03:23:29.826Z,88.31
2022-08-11T03:24:29.858Z,88.31
2022-08-11T03:25:29.785Z,88.51
2022-08-11T03:26:29.829Z,88.71
2022-08-11T03:27:29.799Z,88.61
2022-08-11T03:28:29.750Z,88.61
2022-08-11T03:29:30.585Z,88.92
2022-08-11T03:30:30.988Z,89.01
2022-08-11T03:31:31.034Z,88.81
2022-08-11T03:32:29.992Z,88.81
2022-08-11T03:33:29.860Z,88.75
2022-08-11T03:34:29.732Z,88.96
2022-08-11T03:35:29.675Z,88.96
2022-08-11T03:36:29.687Z,89.16
2022-08-11T03:37:29.700Z,89.06
2022-08-11T03:38:30.446Z,89.06
2022-08-11T03:39:29.726Z,88.96
2022-08-11T03:40:29.623Z,88.75
2022-08-11T03:42:01.825Z,88.75
2022-08-11T03:42:30.594Z,88.75
2022-08-11T03:43:29.609Z,89.06
2022-08-11T03:44:29.563Z,89.26
2022-08-11T03:45:29.640Z,89.26
2022-08-11T03:46:29.510Z,89.47
2022-08-11T03:47:29.602Z,89.47
2022-08-11T03:48:29.579Z,89.67
2022-08-11T03:49:29.509Z,89.77
2022-08-11T03:50:29.496Z,90.28
2022-08-11T03:51:51.525Z,90.38
2022-08-11T03:52:30.436Z,90.08
2022-08-11T03:53:29.503Z,90.08
2022-08-11T03:54:29.428Z,90.28
2022-08-11T03:55:29.431Z,90.42
2022-08-11T03:56:29.386Z,90.59
2022-08-11T03:57:29.377Z,90.28
2022-08-11T03:58:29.414Z,90.28
2022-08-11T03:59:29.577Z,90.18
2022-08-11T04:00:29.361Z,90.18
2022-08-11T04:01:29.380Z,90.28
2022-08-11T04:02:29.352Z,90.22
2022-08-11T04:03:31.227Z,90.32
2022-08-11T04:04:29.349Z,90.38
2022-08-11T04:05:29.274Z,90.69
2022-08-11T04:06:29.363Z,90.59
2022-08-11T04:07:29.241Z,90.83
2022-08-11T04:08:34.297Z,90.59
2022-08-11T04:09:31.030Z,90.59
2022-08-11T04:10:29.778Z,91.03
2022-08-11T04:11:29.189Z,91.03
2022-08-11T04:12:36.789Z,91.20
2022-08-11T04:13:30.245Z,91.30
2022-08-11T04:14:29.151Z,91.09
2022-08-11T04:15:29.149Z,90.89
2022-08-11T04:16:29.129Z,90.89
2022-08-11T04:17:29.291Z,91.09
2022-08-11T04:18:29.102Z,91.20
2022-08-11T04:19:29.090Z,91.30
2022-08-11T04:20:29.154Z,91.20
2022-08-11T04:21:29.113Z,91.09
2022-08-11T04:22:31.059Z,90.99
2022-08-11T04:24:35.657Z,90.89
2022-08-11T04:24:38.558Z,90.79
2022-08-11T04:25:30.023Z,90.79
2022-08-11T04:26:29.061Z,90.69
2022-08-11T04:27:37.060Z,90.99
2022-08-11T04:28:31.452Z,90.99
2022-08-11T04:29:36.353Z,90.89
2022-08-11T04:30:29.991Z,90.89
2022-08-11T04:31:50.738Z,90.89
2022-08-11T04:32:30.232Z,90.99
2022-08-11T04:33:29.258Z,90.89
2022-08-11T04:34:30.998Z,91.09
2022-08-11T04:35:29.272Z,91.09
2022-08-11T04:36:28.877Z,91.05
2022-08-11T04:37:28.882Z,91.16
2022-08-11T04:38:28.876Z,91.26
2022-08-11T04:39:28.866Z,91.26
2022-08-11T04:40:28.829Z,91.26
2022-08-11T04:41:28.805Z,91.36
2022-08-11T04:42:31.710Z,91.26
2022-08-11T04:43:28.846Z,91.26
2022-08-11T04:44:28.847Z,91.46
2022-08-11T04:45:28.758Z,91.46
2022-08-11T04:46:28.739Z,91.83
2022-08-11T04:47:28.964Z,91.72
2022-08-11T04:48:28.717Z,91.52
2022-08-11T04:49:33.987Z,91.22
2022-08-11T04:50:29.777Z,90.86
2022-08-11T04:51:28.768Z,90.77
2022-08-11T04:52:28.810Z,90.46
2022-08-11T04:53:29.773Z,90.16
2022-08-11T04:54:29.004Z,89.70
2022-08-11T04:55:28.629Z,89.20
2022-08-11T04:56:28.617Z,88.79
2022-08-11T04:57:28.675Z,88.54
2022-08-11T04:58:31.504Z,88.44
2022-08-11T04:59:28.577Z,88.13
2022-08-11T05:00:28.788Z,88.13
2022-08-11T05:01:28.620Z,88.04
2022-08-11T05:02:28.611Z,88.04
2022-08-11T05:03:28.545Z,88.04
2022-08-11T05:04:28.532Z,87.93
2022-08-11T05:05:28.552Z,87.93
2022-08-11T05:06:28.522Z,87.93
2022-08-11T05:07:28.492Z,87.79
2022-08-11T05:08:28.453Z,87.79
2022-08-11T05:09:28.444Z,87.59
2022-08-11T05:10:28.535Z,87.49
2022-08-11T05:11:28.487Z,87.59
2022-08-11T05:12:29.410Z,87.45
2022-08-11T05:13:28.562Z,87.24
2022-08-11T05:14:28.393Z,87.45
2022-08-11T05:15:28.402Z,87.10
2022-08-11T05:16:28.376Z,87.00
2022-08-11T05:17:28.366Z,87.00
2022-08-11T05:18:28.367Z,87.10
2022-08-11T05:19:28.305Z,87.00
2022-08-11T05:20:28.294Z,86.76
2022-08-11T05:21:28.450Z,86.96
2022-08-11T05:22:28.284Z,86.45
2022-08-11T05:23:28.255Z,86.55
2022-08-11T05:24:28.247Z,86.00
2022-08-11T05:26:46.597Z,85.90
2022-08-11T05:26:46.842Z,85.56
2022-08-11T05:27:29.206Z,85.25
2022-08-11T05:28:28.201Z,84.64
2022-08-11T05:29:28.193Z,84.55
2022-08-11T05:30:28.176Z,84.00
2022-08-11T05:31:28.171Z,83.90
2022-08-11T05:32:28.224Z,83.59
2022-08-11T05:33:28.237Z,83.04
2022-08-11T05:34:28.121Z,82.95
2022-08-11T05:36:02.227Z,82.75
2022-08-11T05:36:29.151Z,82.64
2022-08-11T05:37:28.104Z,82.64
2022-08-11T05:38:28.951Z,82.40
2022-08-11T05:39:36.288Z,82.10
2022-08-11T05:40:29.128Z,81.99
2022-08-11T05:41:28.112Z,81.99
2022-08-11T05:42:39.062Z,81.45
2022-08-11T05:43:29.001Z,81.15
2022-08-11T05:44:28.004Z,81.15
2022-08-11T05:45:27.995Z,81.25
2022-08-11T05:46:28.980Z,81.45
2022-08-11T05:47:27.947Z,81.41
2022-08-11T05:48:27.973Z,81.21
2022-08-11T05:49:27.920Z,81.41
2022-08-11T05:50:32.821Z,81.21
2022-08-11T05:51:30.468Z,80.71
2022-08-11T05:52:32.029Z,80.87
2022-08-11T05:53:27.888Z,80.57
2022-08-11T05:54:29.526Z,80.16
2022-08-11T05:55:27.936Z,79.66
2022-08-11T05:56:27.834Z,79.96
2022-08-11T05:57:45.561Z,79.92
2022-08-11T05:58:28.865Z,79.72
2022-08-11T05:59:27.853Z,79.32
2022-08-11T06:00:27.821Z,79.11
2022-08-11T06:01:27.807Z,78.91
2022-08-11T06:02:27.786Z,78.57
2022-08-11T06:03:27.854Z,78.37
2022-08-11T06:04:27.726Z,77.66
2022-08-11T06:05:27.738Z,76.95
2022-08-11T06:06:27.770Z,77.22
2022-08-11T06:07:27.778Z,77.02
2022-08-11T06:08:27.719Z,76.21
2022-08-11T06:09:27.691Z,75.77
2022-08-11T06:10:27.695Z,75.37
2022-08-11T06:11:42.859Z,74.56
2022-08-11T06:12:28.667Z,74.43
2022-08-11T06:13:27.629Z,74.22
2022-08-11T06:14:27.602Z,73.88
2022-08-11T06:15:27.610Z,73.38
2022-08-11T06:16:28.373Z,73.18
2022-08-11T06:17:27.628Z,72.98
2022-08-11T06:18:28.633Z,72.88
2022-08-11T06:19:27.563Z,72.94
2022-08-11T06:20:27.530Z,72.54
2022-08-11T06:21:27.528Z,72.74
2022-08-11T06:22:27.600Z,72.85
2022-08-11T06:23:27.493Z,72.34
2022-08-11T06:24:27.471Z,72.14
2022-08-11T06:25:27.466Z,71.94
2022-08-11T06:26:27.484Z,72.11
2022-08-11T06:27:27.521Z,71.70
2022-08-11T06:28:27.439Z,72.41
2022-08-11T06:29:41.023Z,71.60
2022-08-11T06:30:28.445Z,71.47
2022-08-11T06:31:27.373Z,71.87
2022-08-11T06:32:27.367Z,71.16
2022-08-11T06:33:28.347Z,71.36
2022-08-11T06:34:27.874Z,71.43
2022-08-11T06:35:27.327Z,71.43
2022-08-11T06:36:27.335Z,70.63
2022-08-11T06:37:27.378Z,70.43
2022-08-11T06:38:27.320Z,69.89
2022-08-11T06:39:27.360Z,70.39
2022-08-11T06:40:27.300Z,70.19
2022-08-11T06:41:27.325Z,69.89
2022-08-11T06:42:27.247Z,69.35
2022-08-11T06:43:27.291Z,68.65
2022-08-11T06:44:27.219Z,68.12
2022-08-11T06:45:27.260Z,68.41
2022-08-11T06:46:28.413Z,67.51
2022-08-11T06:47:27.168Z,67.61
2022-08-11T06:48:27.148Z,67.58
2022-08-11T06:49:27.169Z,67.38
2022-08-11T06:50:27.149Z,66.67
2022-08-11T06:51:27.120Z,66.44
2022-08-11T06:52:34.856Z,66.75
2022-08-11T06:53:28.091Z,66.85
2022-08-11T06:54:27.222Z,67.25
2022-08-11T06:55:57.870Z,66.95
2022-08-11T06:56:28.080Z,66.85
2022-08-11T06:57:31.090Z,66.44
2022-08-11T06:58:27.029Z,66.55
2022-08-11T06:59:27.015Z,66.35
2022-08-11T07:00:27.013Z,66.01
2022-08-11T07:01:27.075Z,66.21
2022-08-11T07:02:31.085Z,66.31
2022-08-11T07:03:27.014Z,66.21
2022-08-11T07:04:26.965Z,66.61
2022-08-11T07:05:26.943Z,65.91
2022-08-11T07:06:26.973Z,65.91
2022-08-11T07:07:28.149Z,65.91
2022-08-11T07:08:33.714Z,65.58
2022-08-11T07:09:27.916Z,65.68
2022-08-11T07:10:26.952Z,65.48
2022-08-11T07:11:26.906Z,66.25
2022-08-11T07:12:26.875Z,65.15
2022-08-11T07:13:44.901Z,64.72
2022-08-11T07:14:27.832Z,64.01
2022-08-11T07:16:11.152Z,64.42
2022-08-11T07:16:27.814Z,64.62
2022-08-11T07:17:26.810Z,63.68
2022-08-11T07:18:26.789Z,63.08
2022-08-11T07:19:26.767Z,63.58
2022-08-11T07:20:27.020Z,63.78
2022-08-11T07:22:00.297Z,63.78
2022-08-11T07:22:27.781Z,63.68
2022-08-11T07:23:26.700Z,63.58
2022-08-11T07:24:52.609Z,64.28
2022-08-11T07:25:27.698Z,63.78
2022-08-11T07:26:26.681Z,63.25
2022-08-11T07:27:26.672Z,63.06
2022-08-11T07:28:26.640Z,63.45
2022-08-11T07:29:26.634Z,62.85
2022-08-11T07:30:26.611Z,62.75
2022-08-11T07:31:26.665Z,63.06
2022-08-11T07:32:26.734Z,63.56
2022-08-11T07:34:07.327Z,63.25
2022-08-11T07:34:27.560Z,63.06
2022-08-11T07:35:26.553Z,62.62
2022-08-11T07:36:28.555Z,62.62
2022-08-11T07:37:26.566Z,63.12
2022-08-11T07:38:26.536Z,62.92
2022-08-11T07:39:26.513Z,61.40
2022-08-11T07:40:26.558Z,61.40
2022-08-11T07:41:26.507Z,61.46
2022-08-11T07:42:26.513Z,60.86
2022-08-11T07:43:26.488Z,60.36
2022-08-11T07:44:30.761Z,60.24
2022-08-11T07:45:27.469Z,59.94
2022-08-11T07:46:26.486Z,60.33
2022-08-11T07:47:26.447Z,60.24
2022-08-11T07:48:26.370Z,59.74
2022-08-11T07:49:26.363Z,59.64
2022-08-11T07:50:26.438Z,60.03
2022-08-11T07:51:26.424Z,60.14
2022-08-11T07:52:26.509Z,60.00
2022-08-11T07:53:26.400Z,58.88
2022-08-11T07:54:26.321Z,58.55
2022-08-11T07:55:51.211Z,58.65
2022-08-11T07:56:39.626Z,58.36
2022-08-11T07:57:54.054Z,58.85
2022-08-11T07:58:30.090Z,59.05
2022-08-11T08:00:04.142Z,60.17
2022-08-11T08:00:30.011Z,58.88
2022-08-11T08:01:26.346Z,58.38
2022-08-11T08:02:26.202Z,58.38
2022-08-11T08:03:26.200Z,58.38
2022-08-11T08:04:26.160Z,57.65
2022-08-11T08:05:26.194Z,57.56
2022-08-11T08:06:36.247Z,57.56
2022-08-11T08:07:27.259Z,58.15
2022-08-11T08:08:26.155Z,57.95
2022-08-11T08:09:26.135Z,57.33
2022-08-11T08:10:26.726Z,57.73
2022-08-11T08:11:27.277Z,58.03
2022-08-11T08:12:26.108Z,58.83
2022-08-11T08:13:26.195Z,56.73
2022-08-11T08:14:26.126Z,56.93
2022-08-11T08:15:26.103Z,57.10
2022-08-11T08:16:26.066Z,57.20
2022-08-11T08:17:26.010Z,57.70
2022-08-11T08:18:27.740Z,56.98
2022-08-11T08:19:26.075Z,55.95
2022-08-11T08:20:25.957Z,56.32
2022-08-11T08:21:25.952Z,55.03
2022-08-11T08:22:38.870Z,54.93
2022-08-11T08:23:26.976Z,55.13
2022-08-11T08:24:25.969Z,55.03
2022-08-11T08:25:25.913Z,55.23
2022-08-11T08:26:25.904Z,54.83
2022-08-11T08:27:25.901Z,54.24
2022-08-11T08:28:29.026Z,55.13
2022-08-11T08:29:26.872Z,54.71
2022-08-11T08:30:25.873Z,53.71
2022-08-11T08:31:25.850Z,54.31
2022-08-11T08:32:25.813Z,53.31
2022-08-11T08:33:25.809Z,52.19
2022-08-11T08:34:25.826Z,52.19
2022-08-11T08:35:32.148Z,51.97
2022-08-11T08:36:26.789Z,51.17
2022-08-11T08:37:47.189Z,50.68
2022-08-11T08:38:26.778Z,50.85
2022-08-11T08:39:25.775Z,51.25
2022-08-11T08:40:25.764Z,51.05
2022-08-11T08:41:25.754Z,51.45
2022-08-11T08:42:26.343Z,51.25
2022-08-11T08:43:25.662Z,50.75
2022-08-11T08:44:41.879Z,49.54
2022-08-11T08:45:26.667Z,50.03
2022-08-11T08:46:25.648Z,49.21
2022-08-11T08:47:42.082Z,48.42
2022-08-11T08:48:26.628Z,48.62
2022-08-11T08:49:26.486Z,48.62
2022-08-11T08:50:27.861Z,48.82
2022-08-11T08:51:25.571Z,49.51
2022-08-11T08:52:33.161Z,49.88
2022-08-11T08:53:26.519Z,48.90
2022-08-11T08:54:25.584Z,49.19
2022-08-11T08:55:25.622Z,49.19
2022-08-11T08:56:25.509Z,49.07
2022-08-11T08:57:25.481Z,48.87
2022-08-11T08:58:25.555Z,47.49
2022-08-11T08:59:25.501Z,48.20
2022-08-11T09:00:25.543Z,47.80
2022-08-11T09:01:25.678Z,48.20
2022-08-11T09:02:34.450Z,48.60
2022-08-11T09:04:07.019Z,47.88
2022-08-11T09:04:26.435Z,47.88
2022-08-11T09:05:25.584Z,47.68
2022-08-11T09:06:25.408Z,47.09
2022-08-11T09:07:25.368Z,47.80
2022-08-11T09:08:25.332Z,48.30
2022-08-11T09:09:25.358Z,48.40
2022-08-11T09:10:25.318Z,47.80
2022-08-11T09:11:25.317Z,47.41
2022-08-11T09:12:36.002Z,47.68
2022-08-11T09:13:26.271Z,48.08
2022-08-11T09:14:25.377Z,47.49
2022-08-11T09:15:25.910Z,46.37
2022-08-11T09:16:25.268Z,45.97
2022-08-11T09:17:25.430Z,44.96
2022-08-11T09:18:25.367Z,44.96
2022-08-11T09:19:25.270Z,45.43
2022-08-11T09:20:25.760Z,45.26
2022-08-11T09:21:39.275Z,44.54
2022-08-11T09:22:26.199Z,44.94
2022-08-11T09:24:26.566Z,45.01
2022-08-11T09:25:25.125Z,45.12
2022-08-11T09:26:30.766Z,45.41
2022-08-11T09:27:26.715Z,44.35
2022-08-11T09:28:25.227Z,45.53
2022-08-11T09:29:25.204Z,45.63
2022-08-11T09:30:25.063Z,46.42
2022-08-11T09:31:25.052Z,45.43
2022-08-11T09:32:25.073Z,43.93
2022-08-11T09:33:25.038Z,43.53
2022-08-11T09:34:25.005Z,42.25
2022-08-11T09:35:25.026Z,42.84
2022-08-11T09:36:24.974Z,43.33
2022-08-11T09:37:54.728Z,43.12
2022-08-11T09:38:26.894Z,43.61
2022-08-11T09:39:25.069Z,42.43
2022-08-11T09:40:27.361Z,43.02
2022-08-11T09:41:25.544Z,41.06
2022-08-11T09:42:25.037Z,39.48
2022-08-11T09:43:24.924Z,39.28
2022-08-11T09:44:24.901Z,39.40
2022-08-11T09:45:24.859Z,41.18
2022-08-11T09:46:24.861Z,40.66
2022-08-11T09:47:24.889Z,41.25
2022-08-11T09:48:24.857Z,41.85
2022-08-11T09:49:24.822Z,42.64
2022-08-11T09:50:24.809Z,42.13
2022-08-11T09:51:24.781Z,41.73
2022-08-11T09:52:25.063Z,40.72
2022-08-11T09:53:36.743Z,40.23
2022-08-11T09:54:25.773Z,39.83
2022-08-11T09:55:24.754Z,39.62
2022-08-11T09:56:24.802Z,38.53
2022-08-11T09:57:24.712Z,38.33
2022-08-11T09:58:42.357Z,37.74
2022-08-11T09:59:25.705Z,37.54
2022-08-11T10:00:24.686Z,38.15
2022-08-11T10:01:24.720Z,37.56
2022-08-11T10:02:24.650Z,38.75
2022-08-11T10:03:24.729Z,38.75
2022-08-11T10:04:24.629Z,38.57
2022-08-11T10:05:24.697Z,39.06
2022-08-11T10:06:34.276Z,38.96
2022-08-11T10:07:25.621Z,40.34
2022-08-11T10:08:24.569Z,38.75
2022-08-11T10:09:25.111Z,40.03
2022-08-11T10:10:24.568Z,39.83
2022-08-11T10:11:24.548Z,38.23
2022-08-11T10:12:24.563Z,38.13
2022-08-11T10:14:06.096Z,37.72
2022-08-11T10:14:32.846Z,37.13
2022-08-11T10:15:25.543Z,37.32
2022-08-11T10:16:24.527Z,37.43
2022-08-11T10:17:24.734Z,37.13
2022-08-11T10:18:24.461Z,36.93
2022-08-11T10:19:24.584Z,36.34
2022-08-11T10:20:25.935Z,34.58
2022-08-11T10:21:24.444Z,35.96
2022-08-11T10:22:24.384Z,36.16
2022-08-11T10:23:24.373Z,36.95
2022-08-11T10:24:24.416Z,37.94
2022-08-11T10:25:45.410Z,38.04
2022-08-11T10:26:24.419Z,37.84
2022-08-11T10:27:29.007Z,38.73
2022-08-11T10:28:36.618Z,38.61
2022-08-11T10:29:25.336Z,37.23
2022-08-11T10:30:25.338Z,37.54
2022-08-11T10:31:24.314Z,38.15
2022-08-11T10:32:30.173Z,38.75
2022-08-11T10:33:37.626Z,38.82
2022-08-11T10:34:25.277Z,38.13
2022-08-11T10:35:24.268Z,38.82
2022-08-11T10:36:24.243Z,39.00
2022-08-11T10:37:24.205Z,39.00
2022-08-11T10:38:25.222Z,38.59
2022-08-11T10:39:24.423Z,38.59
2022-08-11T10:40:24.162Z,37.32
2022-08-11T10:41:24.156Z,36.55
2022-08-11T10:42:41.459Z,36.95
2022-08-11T10:44:01.761Z,37.72
2022-08-11T10:44:25.328Z,38.41
2022-08-11T10:45:24.098Z,37.60
2022-08-11T10:46:29.767Z,37.11
2022-08-11T10:47:25.072Z,36.71
2022-08-11T10:48:24.066Z,38.20
2022-08-11T10:49:24.041Z,37.30
2022-08-11T10:50:24.104Z,37.90
2022-08-11T10:51:50.855Z,36.82
2022-08-11T10:52:25.018Z,37.70
2022-08-11T10:53:24.037Z,36.82
2022-08-11T10:54:24.077Z,37.30
2022-08-11T10:55:24.005Z,37.60
2022-08-11T10:56:24.894Z,37.30
2022-08-11T10:57:24.054Z,38.10
2022-08-11T10:58:23.960Z,38.20
2022-08-11T10:59:24.015Z,37.01
2022-08-11T11:00:24.027Z,36.82
2022-08-11T11:01:24.038Z,37.30
2022-08-11T11:02:23.910Z,37.01
2022-08-11T11:03:24.102Z,36.83
2022-08-11T11:04:23.850Z,37.21
2022-08-11T11:05:23.938Z,36.21
2022-08-11T11:06:29.383Z,36.58
2022-08-11T11:07:24.875Z,35.99
2022-08-11T11:08:24.614Z,35.99
2022-08-11T11:09:23.883Z,35.60
2022-08-11T11:10:23.793Z,36.11
2022-08-11T11:11:23.770Z,36.99
2022-08-11T11:12:23.904Z,37.37
2022-08-11T11:13:23.824Z,34.69
2022-08-11T11:14:23.766Z,34.99
2022-08-11T11:15:23.755Z,34.58
2022-08-11T11:16:23.715Z,34.00
2022-08-11T11:17:23.777Z,34.59
2022-08-11T11:18:23.680Z,34.71
2022-08-11T11:19:24.070Z,35.89
2022-08-11T11:20:34.618Z,34.51
2022-08-11T11:21:25.712Z,34.71
2022-08-11T11:22:24.086Z,36.09
2022-08-11T11:23:23.647Z,35.68
2022-08-11T11:24:23.601Z,32.72
2022-08-11T11:25:23.608Z,32.11
2022-08-11T11:26:27.106Z,33.49
2022-08-11T11:27:23.557Z,32.41
2022-08-11T11:28:23.570Z,32.60
2022-08-11T11:29:23.536Z,32.70
2022-08-11T11:30:23.542Z,32.51
2022-08-11T11:31:23.573Z,32.32
2022-08-11T11:32:23.491Z,32.80
2022-08-11T11:33:23.543Z,32.70
2022-08-11T11:34:23.479Z,32.31
2022-08-11T11:35:23.528Z,31.72
2022-08-11T11:36:23.431Z,31.82
2022-08-11T11:37:23.421Z,31.23
2022-08-11T11:38:23.425Z,31.60
2022-08-11T11:39:23.574Z,31.41
2022-08-11T11:40:23.477Z,31.90
2022-08-11T11:41:24.411Z,31.80
2022-08-11T11:42:23.381Z,31.41
2022-08-11T11:43:23.403Z,32.39
2022-08-11T11:44:23.383Z,31.80
2022-08-11T11:45:24.297Z,31.21
2022-08-11T11:46:27.066Z,32.00
2022-08-11T11:47:25.779Z,31.31
2022-08-11T11:48:23.388Z,30.60
2022-08-11T11:50:23.317Z,31.39
2022-08-11T11:51:23.329Z,32.57
2022-08-11T11:52:23.360Z,31.31
2022-08-11T11:53:23.224Z,31.31
2022-08-11T11:54:23.218Z,31.70
2022-08-11T11:56:23.194Z,32.49
2022-08-11T11:57:23.183Z,32.51
2022-08-11T11:58:23.170Z,32.60
2022-08-11T11:59:23.693Z,32.11
2022-08-11T12:00:23.201Z,33.22
2022-08-11T12:01:24.253Z,35.86
2022-08-11T12:02:23.137Z,34.08
2022-08-11T12:03:23.131Z,33.39
2022-08-11T12:04:23.104Z,31.90
2022-08-11T12:05:23.176Z,31.90
2022-08-11T12:06:23.112Z,31.41
2022-08-11T12:07:23.048Z,32.49
2022-08-11T12:08:27.244Z,32.49
2022-08-11T12:09:23.073Z,32.39
2022-08-11T12:10:23.028Z,32.01
2022-08-11T12:11:23.019Z,32.41
2022-08-11T12:12:23.053Z,32.51
2022-08-11T12:13:23.374Z,33.11
2022-08-11T12:14:22.991Z,33.20
2022-08-11T12:16:03.625Z,32.80
2022-08-11T12:16:34.930Z,32.11
2022-08-11T12:17:23.943Z,31.92
2022-08-11T12:18:22.932Z,31.80
2022-08-11T12:19:22.988Z,32.10
2022-08-11T12:20:33.161Z,31.90
2022-08-11T12:21:23.879Z,31.23
2022-08-11T12:22:22.882Z,31.42
2022-08-11T12:23:23.754Z,32.11
2022-08-11T12:24:22.849Z,31.60
2022-08-11T12:25:24.039Z,32.29
2022-08-11T12:26:27.323Z,32.00
2022-08-11T12:27:25.195Z,32.10
2022-08-11T12:28:24.026Z,31.41
2022-08-11T12:29:23.815Z,32.00
2022-08-11T12:30:22.755Z,33.08
2022-08-11T12:31:22.775Z,32.49
2022-08-11T12:32:22.762Z,31.98
2022-08-11T12:33:24.011Z,31.39
2022-08-11T12:34:22.747Z,30.71
2022-08-11T12:35:22.704Z,31.00
2022-08-11T12:36:22.772Z,30.71
2022-08-11T12:37:22.669Z,30.60
2022-08-11T12:38:29.673Z,30.60
2022-08-11T12:40:16.835Z,30.51
2022-08-11T12:40:49.525Z,30.51
2022-08-11T12:41:23.743Z,30.80
2022-08-11T12:42:22.911Z,30.59
2022-08-11T12:43:36.917Z,30.47
2022-08-11T12:44:25.273Z,29.48
2022-08-11T12:45:22.775Z,29.49
2022-08-11T12:46:22.640Z,29.99
2022-08-11T12:47:22.591Z,30.77
2022-08-11T12:48:58.598Z,30.40
2022-08-11T12:49:23.555Z,32.07
2022-08-11T12:50:23.177Z,31.28
2022-08-11T12:51:22.503Z,30.30
2022-08-11T12:52:22.579Z,30.69
2022-08-11T12:53:22.472Z,30.49
2022-08-11T12:54:22.488Z,30.30
2022-08-11T12:55:22.498Z,30.30